createdAt,value
2023-03-02T20:58:33.837Z,10.90
2023-03-02T20:59:33.692Z,15.40
2023-03-02T21:00:33.635Z,18.40
2023-03-02T21:01:33.615Z,20.30
2023-03-02T21:02:33.529Z,20.50
2023-03-02T21:03:33.477Z,21.60
2023-03-02T21:04:33.498Z,24.40
2023-03-02T21:05:33.368Z,23.10
2023-03-02T21:06:33.327Z,22.30
2023-03-02T21:07:33.264Z,23.30
2023-03-02T21:08:34.177Z,24.80
2023-03-02T21:09:33.161Z,25.00
2023-03-02T21:10:33.138Z,26.50
2023-03-02T21:11:33.058Z,24.90
2023-03-02T21:12:33.013Z,24.80
2023-03-02T21:13:32.960Z,24.00
2023-03-02T21:14:32.935Z,27.90
2023-03-02T21:15:32.910Z,24.70
2023-03-02T21:16:32.816Z,24.40
2023-03-02T21:17:32.756Z,25.60
2023-03-02T21:18:32.713Z,25.40
2023-03-02T21:19:32.666Z,26.80
2023-03-02T21:20:32.621Z,25.60
2023-03-02T21:21:41.002Z,26.90
2023-03-02T21:22:32.526Z,28.40
2023-03-02T21:23:32.461Z,26.20
2023-03-02T21:24:32.411Z,25.70
2023-03-02T21:25:32.364Z,27.20
2023-03-02T21:26:32.323Z,26.50
2023-03-02T21:27:32.282Z,25.70
2023-03-02T21:28:32.240Z,26.50
2023-03-02T21:29:32.165Z,26.40
2023-03-02T21:30:32.139Z,27.80
2023-03-02T21:31:32.137Z,26.70
2023-03-02T21:32:32.054Z,26.10
2023-03-02T21:33:32.002Z,25.60
2023-03-02T21:34:31.937Z,28.30
2023-03-02T21:35:31.881Z,27.90
2023-03-02T21:36:31.841Z,29.10
2023-03-02T21:37:31.871Z,27.90
2023-03-02T21:38:31.751Z,26.70
2023-03-02T21:39:31.678Z,26.30
2023-03-02T21:40:32.342Z,27.80
2023-03-02T21:41:31.596Z,27.50
2023-03-02T21:42:31.570Z,26.90
2023-03-02T21:43:31.479Z,27.20
2023-03-02T21:44:31.460Z,29.90
2023-03-02T21:45:31.416Z,28.30
2023-03-02T21:46:31.402Z,27.80
2023-03-02T21:47:31.303Z,29.00
2023-03-02T21:48:31.260Z,28.40
2023-03-02T21:49:31.220Z,28.90
2023-03-02T21:50:31.143Z,29.40
2023-03-02T21:51:31.097Z,30.00
2023-03-02T21:52:31.068Z,30.00
2023-03-02T21:53:32.011Z,30.10
2023-03-02T21:54:30.967Z,31.50
2023-03-02T21:55:30.931Z,32.30
2023-03-02T21:56:30.866Z,34.00
2023-03-02T21:57:30.818Z,34.00
2023-03-02T21:58:30.753Z,34.80
2023-03-02T21:59:30.717Z,36.80
2023-03-02T22:00:30.691Z,34.40
2023-03-02T22:01:30.607Z,36.50
2023-03-02T22:02:30.597Z,39.00
2023-03-02T22:03:30.520Z,35.70
2023-03-02T22:04:30.480Z,37.90
2023-03-02T22:05:30.433Z,40.30
2023-03-02T22:06:30.366Z,49.60
2023-03-02T22:07:30.318Z,39.70
2023-03-02T22:08:30.272Z,69.80
2023-03-02T22:09:30.262Z,36.10
2023-03-02T22:10:30.203Z,37.90
2023-03-02T22:11:30.115Z,34.20
2023-03-02T22:12:30.093Z,34.80
2023-03-02T22:13:30.023Z,34.40
2023-03-02T22:14:29.971Z,37.50
2023-03-02T22:15:29.940Z,36.90
2023-03-02T22:16:29.913Z,36.10
2023-03-02T22:17:29.840Z,37.60
2023-03-02T22:18:29.839Z,36.10
2023-03-02T22:19:29.765Z,37.90
2023-03-02T22:20:29.714Z,36.60
2023-03-02T22:21:29.628Z,36.00
2023-03-02T22:22:29.588Z,37.80
2023-03-02T22:23:29.569Z,41.00
2023-03-02T22:24:29.500Z,36.00
2023-03-02T22:25:29.455Z,35.70
2023-03-02T22:26:29.419Z,37.30
2023-03-02T22:27:29.361Z,42.50
2023-03-02T22:28:29.311Z,39.10
2023-03-02T22:29:29.258Z,36.60
2023-03-02T22:30:29.209Z,36.30
2023-03-02T22:31:29.249Z,53.30
2023-03-02T22:32:29.198Z,40.40
2023-03-02T22:33:29.052Z,46.00
2023-03-02T22:34:29.036Z,46.60
2023-03-02T22:35:29.013Z,39.00
2023-03-02T22:36:28.925Z,43.30
2023-03-02T22:37:28.856Z,43.30
2023-03-02T22:38:28.833Z,42.00
2023-03-02T22:39:28.776Z,37.60
2023-03-02T22:40:29.035Z,37.90
2023-03-02T22:41:28.676Z,40.80
2023-03-02T22:42:28.609Z,39.30
2023-03-02T22:43:28.563Z,37.90
2023-03-02T22:44:28.520Z,40.50
2023-03-02T22:45:28.482Z,37.40
2023-03-02T22:46:28.484Z,39.80
2023-03-02T22:47:28.377Z,53.50
2023-03-02T22:48:28.372Z,40.60
2023-03-02T22:49:28.287Z,43.40
2023-03-02T22:50:28.294Z,38.40
2023-03-02T22:51:28.241Z,37.50
2023-03-02T22:52:28.166Z,38.20
2023-03-02T22:53:28.103Z,37.80
2023-03-02T22:54:28.030Z,57.00
2023-03-02T22:55:27.999Z,40.00
2023-03-02T22:56:28.603Z,39.60
2023-03-02T22:57:27.949Z,37.10
2023-03-02T22:58:27.849Z,39.90
2023-03-02T22:59:27.794Z,39.50
2023-03-02T23:00:27.751Z,38.40
2023-03-02T23:01:27.708Z,37.60
2023-03-02T23:02:27.665Z,45.30
2023-03-02T23:03:27.610Z,38.70
2023-03-02T23:04:27.573Z,39.40
2023-03-02T23:05:27.523Z,39.40
2023-03-02T23:06:27.670Z,38.80
2023-03-02T23:07:27.405Z,37.40
2023-03-02T23:09:27.342Z,38.30
2023-03-02T23:10:27.272Z,38.80
2023-03-02T23:11:27.229Z,36.30
2023-03-02T23:12:27.176Z,38.30
2023-03-02T23:13:27.474Z,36.30
2023-03-02T23:14:27.419Z,35.70
2023-03-02T23:15:27.025Z,38.00
2023-03-02T23:16:27.000Z,36.80
2023-03-02T23:17:26.905Z,35.80
2023-03-02T23:18:26.876Z,34.20
2023-03-02T23:19:26.809Z,34.40
2023-03-02T23:20:26.978Z,35.70
2023-03-02T23:21:28.226Z,36.30
2023-03-02T23:22:26.681Z,35.80
2023-03-02T23:23:26.616Z,36.30
2023-03-02T23:24:26.580Z,35.60
2023-03-02T23:25:26.514Z,35.60
2023-03-02T23:26:26.472Z,42.40
2023-03-02T23:27:26.443Z,37.30
2023-03-02T23:28:26.387Z,39.40
